createdAt,value
2018-07-09T00:02:38.968Z,21.25
2018-07-09T00:05:43.274Z,21.34
2018-07-09T00:08:46.704Z,21.32
2018-07-09T00:11:49.971Z,21.23
2018-07-09T00:14:53.175Z,21.18
2018-07-09T00:17:56.362Z,21.18
2018-07-09T00:20:59.566Z,20.99
2018-07-09T00:24:02.803Z,20.98
2018-07-09T00:27:06.063Z,21.08
2018-07-09T00:30:09.287Z,21.10
2018-07-09T00:33:12.444Z,21.12
2018-07-09T00:36:15.651Z,20.98
2018-07-09T00:39:18.827Z,20.94
2018-07-09T00:42:22.113Z,20.84
2018-07-09T00:45:25.351Z,20.76
2018-07-09T00:48:28.953Z,20.78
2018-07-09T00:51:32.411Z,20.71
2018-07-09T00:54:35.570Z,20.55
2018-07-09T00:57:38.776Z,20.30
2018-07-09T01:00:41.997Z,20.40
2018-07-09T01:03:45.148Z,20.37
2018-07-09T01:06:48.322Z,20.43
2018-07-09T01:09:51.515Z,20.40
2018-07-09T01:12:54.674Z,20.43
2018-07-09T01:15:57.862Z,20.12
2018-07-09T01:19:01.094Z,20.18
2018-07-09T01:22:04.823Z,20.14
2018-07-09T01:25:07.935Z,20.14
2018-07-09T01:28:11.124Z,20.12
2018-07-09T01:31:14.319Z,20.07
2018-07-09T01:34:17.503Z,20.00
2018-07-09T01:37:20.698Z,20.06
2018-07-09T01:40:23.867Z,19.97
2018-07-09T01:43:27.068Z,19.83
2018-07-09T01:46:30.258Z,19.83
2018-07-09T01:49:33.426Z,19.76
2018-07-09T01:52:36.607Z,19.70
2018-07-09T01:55:39.764Z,19.59
2018-07-09T01:58:43.024Z,19.60
2018-07-09T02:01:46.866Z,19.37
2018-07-09T02:04:50.018Z,19.51
2018-07-09T02:07:53.519Z,19.52
2018-07-09T02:10:56.703Z,19.55
2018-07-09T02:13:59.954Z,19.41
2018-07-09T02:17:03.128Z,19.29
2018-07-09T02:20:06.410Z,19.07
2018-07-09T02:23:09.603Z,19.15
2018-07-09T02:26:12.767Z,19.00
2018-07-09T02:29:15.981Z,19.03
2018-07-09T02:32:19.153Z,19.05
2018-07-09T02:35:22.298Z,18.97
2018-07-09T02:38:25.512Z,19.07
2018-07-09T02:41:28.751Z,18.86
2018-07-09T02:44:31.964Z,19.17
2018-07-09T02:47:35.193Z,18.81
2018-07-09T02:50:38.373Z,18.83
2018-07-09T02:53:41.563Z,18.98
2018-07-09T02:56:44.722Z,18.93
2018-07-09T02:59:47.992Z,18.86
2018-07-09T03:02:51.214Z,18.67
2018-07-09T03:05:54.410Z,18.54
2018-07-09T03:08:57.589Z,18.68
2018-07-09T03:12:00.819Z,18.48
2018-07-09T03:15:04.070Z,18.49
2018-07-09T03:18:07.215Z,18.43
2018-07-09T03:21:10.433Z,18.54
2018-07-09T03:24:13.811Z,18.51
2018-07-09T03:27:17.119Z,18.43
2018-07-09T03:30:20.532Z,18.28
2018-07-09T03:33:23.720Z,18.44
2018-07-09T03:36:26.968Z,18.39
2018-07-09T03:39:30.173Z,18.30
2018-07-09T03:42:33.386Z,18.38
2018-07-09T03:45:36.595Z,18.29
2018-07-09T03:48:39.790Z,18.17
2018-07-09T03:51:42.949Z,18.13
2018-07-09T03:54:46.204Z,18.17
2018-07-09T03:57:49.349Z,18.13
2018-07-09T04:00:52.607Z,18.22
2018-07-09T04:03:55.802Z,18.12
2018-07-09T04:06:58.982Z,18.00
2018-07-09T04:10:02.153Z,18.06
2018-07-09T04:13:05.287Z,18.10
2018-07-09T04:16:08.441Z,18.03
2018-07-09T04:19:11.630Z,18.21
2018-07-09T04:22:14.785Z,18.21
2018-07-09T04:25:18.021Z,18.10
2018-07-09T04:28:21.912Z,18.26
2018-07-09T04:31:25.086Z,18.24
2018-07-09T04:34:28.315Z,18.16
2018-07-09T04:37:31.613Z,18.26
2018-07-09T04:40:34.807Z,18.14
2018-07-09T04:43:38.033Z,18.22
2018-07-09T04:46:41.326Z,18.14
2018-07-09T04:49:44.589Z,18.17
2018-07-09T04:52:47.712Z,18.23
2018-07-09T04:55:51.000Z,18.26
2018-07-09T04:58:54.277Z,18.21
2018-07-09T05:01:57.475Z,18.22
2018-07-09T05:05:00.719Z,18.24
2018-07-09T05:08:04.266Z,18.33
2018-07-09T05:11:07.554Z,18.39
2018-07-09T05:14:10.781Z,18.60
2018-07-09T05:17:14.036Z,18.51
2018-07-09T05:20:17.755Z,18.56
2018-07-09T05:23:20.876Z,18.55
2018-07-09T05:26:24.143Z,18.38
2018-07-09T05:29:27.331Z,18.45
2018-07-09T05:32:30.471Z,18.51
2018-07-09T05:35:33.677Z,18.40
2018-07-09T05:38:36.949Z,18.52
2018-07-09T05:41:40.159Z,18.59
2018-07-09T05:44:43.374Z,18.60
2018-07-09T05:47:46.768Z,18.67
2018-07-09T05:50:50.054Z,18.63
2018-07-09T05:53:53.232Z,18.65
2018-07-09T05:56:56.442Z,18.75
2018-07-09T05:59:59.630Z,18.89
2018-07-09T06:03:02.828Z,18.78
2018-07-09T06:06:06.652Z,18.94
2018-07-09T06:09:10.546Z,19.04
2018-07-09T06:12:13.966Z,18.99
2018-07-09T06:15:17.221Z,19.01
2018-07-09T06:18:20.391Z,19.03
2018-07-09T06:21:23.596Z,19.22
2018-07-09T06:24:26.808Z,19.27
2018-07-09T06:27:30.149Z,19.30
2018-07-09T06:30:33.522Z,19.44
2018-07-09T06:33:36.719Z,19.49
2018-07-09T06:36:40.083Z,19.62
2018-07-09T06:39:43.368Z,19.66
2018-07-09T06:42:46.631Z,19.74
2018-07-09T06:45:49.907Z,19.74
2018-07-09T06:48:53.737Z,19.74
2018-07-09T06:51:56.999Z,19.69
2018-07-09T06:55:00.232Z,19.76
2018-07-09T06:58:03.539Z,19.88
2018-07-09T07:01:06.807Z,20.03
2018-07-09T07:04:10.074Z,20.10
2018-07-09T07:07:13.382Z,20.21
2018-07-09T07:10:16.688Z,20.33
2018-07-09T07:13:19.967Z,20.51
2018-07-09T07:16:23.222Z,20.55
2018-07-09T07:19:26.438Z,20.80
2018-07-09T07:22:29.667Z,20.48
2018-07-09T07:25:33.195Z,20.73
2018-07-09T07:28:36.406Z,20.55
2018-07-09T07:31:39.768Z,20.58
2018-07-09T07:34:43.174Z,20.77
2018-07-09T07:37:46.419Z,20.77
2018-07-09T07:40:49.886Z,20.77
2018-07-09T07:43:53.159Z,20.66
2018-07-09T07:46:56.581Z,20.78
2018-07-09T07:49:59.913Z,20.86
2018-07-09T07:53:03.545Z,20.84
2018-07-09T07:56:06.889Z,20.91
2018-07-09T07:59:10.120Z,20.91
2018-07-09T08:02:13.718Z,21.00
2018-07-09T08:05:17.176Z,21.14
2018-07-09T08:08:20.984Z,21.20
2018-07-09T08:11:47.729Z,21.21
2018-07-09T08:14:29.217Z,21.32
2018-07-09T08:17:33.644Z,21.37
2018-07-09T08:20:37.366Z,21.60
2018-07-09T08:23:40.710Z,21.60
2018-07-09T08:26:45.120Z,21.65
2018-07-09T08:29:48.400Z,21.61
2018-07-09T08:32:52.263Z,21.58
2018-07-09T08:35:56.387Z,21.78
2018-07-09T08:39:00.338Z,21.90
2018-07-09T08:42:03.799Z,22.06
2018-07-09T08:45:07.178Z,22.38
2018-07-09T08:48:11.165Z,22.34
2018-07-09T08:51:14.594Z,22.45
2018-07-09T08:54:17.886Z,22.22
2018-07-09T08:57:21.565Z,22.33
2018-07-09T09:00:25.923Z,22.55
2018-07-09T09:03:29.268Z,22.70
2018-07-09T09:06:35.211Z,22.83
2018-07-09T09:09:38.963Z,22.94
2018-07-09T09:12:42.601Z,22.83
2018-07-09T09:15:46.448Z,22.99
2018-07-09T09:18:51.955Z,22.87
2018-07-09T09:21:55.516Z,22.86
2018-07-09T09:24:59.109Z,22.69
2018-07-09T09:28:02.523Z,22.79
2018-07-09T09:31:06.179Z,22.97
2018-07-09T09:34:11.204Z,23.16
2018-07-09T09:37:15.058Z,22.97
2018-07-09T09:40:18.365Z,23.29
2018-07-09T09:43:21.627Z,23.48
2018-07-09T09:46:24.946Z,23.65
2018-07-09T09:49:29.390Z,24.02
2018-07-09T09:52:32.984Z,23.89
2018-07-09T09:55:36.798Z,23.93
2018-07-09T09:58:40.107Z,24.02
2018-07-09T10:01:43.423Z,23.71
2018-07-09T10:04:46.895Z,23.86
2018-07-09T10:07:50.224Z,23.77
2018-07-09T10:10:53.609Z,23.32
2018-07-09T10:13:57.590Z,23.55
2018-07-09T10:17:01.537Z,23.36
2018-07-09T10:20:04.960Z,23.14
2018-07-09T10:23:08.549Z,23.20
2018-07-09T10:26:11.822Z,23.48
2018-07-09T10:29:15.110Z,23.66
2018-07-09T10:32:18.418Z,24.04
2018-07-09T10:35:21.766Z,24.37
2018-07-09T10:38:25.200Z,24.60
2018-07-09T10:41:28.483Z,24.79
2018-07-09T10:44:31.763Z,24.92
2018-07-09T10:47:36.320Z,25.20
2018-07-09T10:50:39.778Z,25.07
2018-07-09T10:53:44.039Z,25.15
2018-07-09T10:56:47.294Z,24.90
2018-07-09T10:59:51.015Z,25.23
2018-07-09T11:02:54.302Z,24.34
2018-07-09T11:05:57.556Z,24.96
2018-07-09T11:09:00.822Z,24.94
2018-07-09T11:12:04.067Z,25.12
2018-07-09T11:15:07.323Z,25.06
2018-07-09T11:18:10.613Z,25.21
2018-07-09T11:21:13.983Z,25.29
2018-07-09T11:24:17.566Z,24.96
2018-07-09T11:27:20.832Z,25.06
2018-07-09T11:30:24.156Z,25.15
2018-07-09T11:33:27.508Z,25.31
2018-07-09T11:36:30.790Z,25.49
2018-07-09T11:39:34.153Z,25.57
2018-07-09T11:42:37.413Z,25.46
2018-07-09T11:45:40.720Z,25.76
2018-07-09T11:48:44.116Z,25.58
2018-07-09T11:51:47.499Z,26.01
2018-07-09T11:54:50.703Z,26.02
2018-07-09T11:57:54.001Z,25.99
2018-07-09T12:00:57.337Z,25.98
2018-07-09T12:04:00.764Z,25.53
2018-07-09T12:07:04.042Z,25.33
2018-07-09T12:10:07.382Z,25.23
2018-07-09T12:13:10.634Z,25.14
2018-07-09T12:16:13.906Z,24.50
2018-07-09T12:19:17.212Z,24.71
2018-07-09T12:22:20.561Z,24.85
2018-07-09T12:25:23.839Z,24.54
2018-07-09T12:28:27.277Z,24.79
2018-07-09T12:31:30.581Z,24.49
2018-07-09T12:34:33.853Z,24.35
2018-07-09T12:37:37.265Z,24.60
2018-07-09T12:40:40.574Z,24.53
2018-07-09T12:43:43.859Z,24.22
2018-07-09T12:46:47.148Z,24.08
2018-07-09T12:49:50.535Z,23.89
2018-07-09T12:52:53.769Z,24.05
2018-07-09T12:55:57.321Z,24.07
2018-07-09T12:59:00.595Z,24.12
2018-07-09T13:02:03.952Z,24.15
2018-07-09T13:05:07.762Z,24.21
2018-07-09T13:08:11.193Z,24.13
2018-07-09T13:11:14.565Z,24.07
2018-07-09T13:14:18.087Z,24.23
2018-07-09T13:17:21.277Z,24.21
2018-07-09T13:20:24.680Z,24.01
2018-07-09T13:23:27.953Z,24.15
2018-07-09T13:26:31.276Z,23.78
2018-07-09T13:29:34.590Z,24.02
2018-07-09T13:32:37.987Z,23.98
2018-07-09T13:35:41.325Z,24.14
2018-07-09T13:38:44.684Z,24.11
2018-07-09T13:41:47.948Z,23.74
2018-07-09T13:44:51.506Z,24.00
2018-07-09T13:47:54.968Z,24.42
2018-07-09T13:50:58.411Z,24.17
2018-07-09T13:54:01.793Z,24.12
2018-07-09T13:57:05.034Z,24.11
2018-07-09T14:00:08.323Z,24.19
2018-07-09T14:03:11.646Z,23.72
2018-07-09T14:06:14.870Z,23.39
2018-07-09T14:09:18.178Z,23.14
2018-07-09T14:12:21.403Z,23.35
2018-07-09T14:15:24.689Z,23.22
2018-07-09T14:18:28.130Z,22.83
2018-07-09T14:21:31.677Z,23.11
2018-07-09T14:24:35.392Z,22.93
2018-07-09T14:27:40.287Z,23.18
2018-07-09T14:30:44.055Z,22.83
2018-07-09T14:33:48.346Z,23.14
2018-07-09T14:36:52.240Z,23.05
2018-07-09T14:39:55.691Z,23.16
2018-07-09T14:42:59.027Z,23.21
2018-07-09T14:46:02.454Z,23.07
2018-07-09T14:49:06.164Z,23.11
2018-07-09T14:52:09.898Z,23.32
2018-07-09T14:55:13.563Z,23.37
2018-07-09T14:58:17.216Z,23.57
2018-07-09T15:01:22.522Z,23.77
2018-07-09T15:04:27.039Z,23.75
2018-07-09T15:07:30.742Z,23.72
2018-07-09T15:10:34.509Z,23.74
2018-07-09T15:13:38.535Z,23.71
2018-07-09T15:16:42.250Z,23.96
2018-07-09T15:19:46.071Z,24.16
2018-07-09T15:22:49.390Z,24.34
2018-07-09T15:25:52.674Z,24.37
2018-07-09T15:28:55.965Z,24.50
2018-07-09T15:32:10.767Z,24.53
2018-07-09T15:35:14.029Z,24.59
2018-07-09T15:38:17.942Z,24.58
2018-07-09T15:41:21.835Z,24.50
2018-07-09T15:44:25.206Z,24.39
2018-07-09T15:47:28.627Z,24.39
2018-07-09T15:50:31.948Z,24.36
2018-07-09T15:53:35.354Z,24.15
2018-07-09T15:56:38.757Z,24.34
2018-07-09T15:59:42.272Z,24.12
2018-07-09T16:02:45.693Z,24.29
2018-07-09T16:05:49.000Z,24.15
2018-07-09T16:08:52.745Z,24.12
2018-07-09T16:11:56.039Z,24.12
2018-07-09T16:14:59.459Z,24.04
2018-07-09T16:18:03.331Z,24.09
2018-07-09T16:21:08.142Z,23.87
2018-07-09T16:24:11.685Z,23.87
2018-07-09T16:27:15.025Z,23.69
2018-07-09T16:30:18.553Z,23.93
2018-07-09T16:33:22.260Z,23.87
2018-07-09T16:36:26.317Z,23.98
2018-07-09T16:39:30.081Z,23.97
2018-07-09T16:42:33.488Z,23.98
2018-07-09T16:45:37.211Z,23.88
2018-07-09T16:48:40.955Z,23.92
2018-07-09T16:51:44.525Z,23.88
2018-07-09T16:54:48.298Z,23.93
2018-07-09T16:57:52.941Z,23.81
2018-07-09T17:00:56.731Z,23.92
2018-07-09T17:04:00.334Z,23.91
2018-07-09T17:07:03.973Z,23.85
2018-07-09T17:10:09.160Z,23.88
2018-07-09T17:13:13.260Z,24.03
2018-07-09T17:16:17.736Z,23.95
2018-07-09T17:19:21.956Z,24.00
2018-07-09T17:22:25.794Z,23.89
2018-07-09T17:25:29.662Z,23.94
2018-07-09T17:28:33.194Z,23.89
2018-07-09T17:31:37.793Z,23.89
2018-07-09T17:34:41.625Z,23.86
2018-07-09T17:37:46.686Z,23.86
2018-07-09T17:40:52.447Z,23.81
2018-07-09T17:43:56.499Z,23.83
2018-07-09T17:47:01.720Z,23.82
2018-07-09T17:50:05.849Z,23.78
2018-07-09T17:53:09.833Z,23.68
2018-07-09T17:56:14.312Z,23.67
2018-07-09T17:59:21.226Z,23.65
2018-07-09T18:02:26.876Z,23.54
2018-07-09T18:05:31.705Z,23.35
2018-07-09T18:08:54.936Z,23.18
2018-07-09T18:12:01.581Z,23.20
2018-07-09T18:15:06.357Z,22.97
2018-07-09T18:18:12.349Z,22.91
2018-07-09T18:21:16.315Z,22.70
2018-07-09T18:24:20.824Z,22.73
2018-07-09T18:27:26.069Z,22.57
2018-07-09T18:30:30.351Z,22.23
2018-07-09T18:33:35.515Z,22.17
2018-07-09T18:36:40.062Z,22.02
2018-07-09T18:39:44.814Z,21.66
2018-07-09T18:42:49.099Z,21.62
2018-07-09T18:45:53.032Z,21.56
2018-07-09T18:48:57.050Z,21.45
2018-07-09T18:52:00.868Z,21.20
2018-07-09T18:55:05.568Z,21.24
2018-07-09T18:58:10.493Z,21.76
2018-07-09T19:01:15.237Z,21.62
2018-07-09T19:04:19.061Z,21.46
2018-07-09T19:07:23.788Z,21.18
2018-07-09T19:10:27.550Z,20.87
2018-07-09T19:13:32.367Z,20.85
2018-07-09T19:16:46.394Z,20.92
2018-07-09T19:19:55.748Z,20.67
2018-07-09T19:22:58.591Z,20.70
2018-07-09T19:26:01.042Z,20.66
2018-07-09T19:29:03.603Z,20.62
2018-07-09T19:32:06.423Z,20.54
2018-07-09T19:35:08.752Z,20.55
2018-07-09T19:38:11.239Z,20.26
2018-07-09T19:41:13.924Z,20.23
2018-07-09T19:44:16.636Z,20.32
2018-07-09T19:47:19.089Z,20.25
2018-07-09T19:50:21.550Z,20.23
2018-07-09T19:53:23.870Z,20.02
2018-07-09T19:56:26.627Z,20.13
2018-07-09T19:59:29.089Z,19.87
2018-07-09T20:02:32.135Z,19.76
2018-07-09T20:05:34.515Z,19.89
2018-07-09T20:08:42.229Z,19.96
2018-07-09T20:11:50.064Z,19.99
2018-07-09T20:14:57.843Z,19.79
2018-07-09T20:18:00.245Z,19.67
2018-07-09T20:21:02.613Z,19.45
2018-07-09T20:24:04.906Z,19.46
2018-07-09T20:27:07.367Z,19.67
2018-07-09T20:30:09.794Z,19.61
2018-07-09T20:33:12.246Z,19.54
2018-07-09T20:36:15.794Z,19.38
2018-07-09T20:39:18.143Z,19.26
2018-07-09T20:42:20.450Z,19.28
2018-07-09T20:45:22.733Z,19.20
2018-07-09T20:48:25.181Z,19.12
2018-07-09T20:51:27.554Z,19.31
2018-07-09T20:54:29.937Z,19.38
2018-07-09T20:57:32.265Z,19.07
2018-07-09T21:00:34.509Z,18.95
2018-07-09T21:03:36.839Z,18.92
2018-07-09T21:06:39.108Z,18.90
2018-07-09T21:09:41.317Z,18.88
2018-07-09T21:13:00.710Z,18.68
2018-07-09T21:16:03.243Z,18.66
2018-07-09T21:19:09.858Z,18.52
2018-07-09T21:22:12.654Z,18.51
2018-07-09T21:25:19.199Z,18.49
2018-07-09T21:28:26.115Z,18.59
2018-07-09T21:31:28.737Z,18.54
2018-07-09T21:34:31.152Z,18.54
2018-07-09T21:37:33.499Z,18.70
2018-07-09T21:40:35.696Z,18.58
2018-07-09T21:43:38.030Z,18.68
2018-07-09T21:46:40.284Z,18.49
2018-07-09T21:49:42.505Z,18.47
2018-07-09T21:52:44.796Z,18.32
2018-07-09T21:55:47.057Z,18.19
2018-07-09T21:58:49.341Z,18.29
2018-07-09T22:01:52.119Z,18.36
2018-07-09T22:04:54.416Z,18.21
2018-07-09T22:07:56.951Z,18.19
2018-07-09T22:10:59.248Z,18.23
2018-07-09T22:14:01.538Z,18.09
2018-07-09T22:17:03.737Z,18.22
2018-07-09T22:20:05.954Z,18.29
2018-07-09T22:23:08.143Z,18.27
2018-07-09T22:26:10.530Z,18.41
2018-07-09T22:29:12.765Z,18.36
2018-07-09T22:32:16.057Z,18.29
2018-07-09T22:35:20.503Z,18.42
2018-07-09T22:38:23.946Z,18.00
2018-07-09T22:41:27.354Z,18.44
2018-07-09T22:44:30.795Z,18.26
2018-07-09T22:47:34.236Z,18.20
2018-07-09T22:50:37.501Z,18.14
2018-07-09T22:53:40.833Z,18.17
2018-07-09T22:56:44.131Z,17.79
2018-07-09T22:59:47.368Z,18.11
2018-07-09T23:03:03.961Z,18.20
2018-07-09T23:06:07.139Z,18.09
2018-07-09T23:10:24.267Z,17.85
2018-07-09T23:16:56.316Z,17.88
2018-07-09T23:20:36.442Z,17.89
2018-07-09T23:23:38.643Z,17.91
2018-07-09T23:26:41.453Z,18.06
2018-07-09T23:29:43.693Z,17.99
2018-07-09T23:32:45.866Z,18.03
2018-07-09T23:35:48.075Z,18.08
2018-07-09T23:38:50.450Z,18.00
2018-07-09T23:41:52.637Z,17.98
2018-07-09T23:44:54.813Z,18.14
2018-07-09T23:47:56.964Z,17.83
2018-07-09T23:50:59.168Z,18.02
2018-07-09T23:54:01.336Z,18.02
2018-07-09T23:57:18.511Z,18.16
